Aérodrome :







RETROUVEZ-NOUS SUR...

 
LOGIN :

S'inscrire | Disclaimer

   EN    FR    IT 

 









Légende :    VFR   VFR Marginal   IFR   IFR Intensif   IFR Très Intensif
Visi : 
Plafond : 
>= 8 km
>= 3000ft
5 à 8 km
1000 à 3000 ft
1500m à 5 km
500 à 1000 ft
800 à 1500m
200 à 500 ft
< 800m
< 200 ft
Symboles :   Orages  Brouillard  Fortes neiges  Fortes précipitations  Vent > 20 kt






- Altitude de l'aérodrome : 534 ft
- Code IATA : PQI


KPQI - Northern Maine Regional Arpt At Presque Isle

DERNIER METAR :
  • 161851Z AUTO 21008G16KT 10SM -SN OVC029 M01/M06 A2990 RMK AO2 UPB06E45SNB45 P0000

METARs EXPIRÉS :
  • 161815Z AUTO 22008KT 10SM UP OVC031 M01/M07 A2991 RMK AO2 UPB06 P0000
  • 161756Z AUTO 20009KT 10SM OVC029 M02/M07 A2990 RMK AO2 SNB01E44 SLP162 P0000 60000 T10171072 11017 21089 58007
  • 161656Z AUTO 20011KT 10SM OVC029 M02/M08 A2991 RMK AO2 SLP166 T10221078
  • 161556Z AUTO 22007KT 10SM BKN029 OVC041 M03/M08 A2993 RMK AO2 SLP172 T10281078

TAF KPQI
Valide du 16 à 18h jusqu'au 17 à 18h UTC


161821Z 1618/1718 23010KT P6SM -SHSN BKN035
FM170200 22004KT P6SM BKN090
FM171100 00000KT P6SM BKN030
FM171400 32006KT P6SM BKN024
FM171600 33008KT P6SM BKN030



MET'MAP, la Météo Aéronautique d'un coup d'oeil ! - Copyright ORBIFLY Décembre 2007 - Disclaimer

ORBIFLY MET'MAP TEAM :

Programmation & Développement : Alexandra Zaïnal
Sur une idée originale de : Baudouin d'Aumeries
Assistance à la programmation : Marc-Olivier Méhu
Soutien technique & logistique : Manuel Goepfert

Contact : metmap@orbifly.com




SOURCES & CREDITS :

   NOAA